Time;durP1;ratioP1;P1;durP2;ratioP2;P2;SDS_P1;SDS_P2;PMS_P1;PMS_P2;Temp;Humidity;BMP_temperature;BMP_pressure;BME280_temperature;BME280_humidity;BME280_pressure;Samples;Min_cycle;Max_cycle;Signal;HPM_P1;HPM_P2
2023/05/02 00:01:04;;;;;;;33.05;27.38;;;;;;;10.82;100.00;101906.91;5029782;28;20087;-77
2023/05/02 00:03:32;;;;;;;35.55;26.58;;;;;;;10.83;100.00;101915.66;5004885;28;20026;-78
2023/05/02 00:05:59;;;;;;;34.80;27.80;;;;;;;10.87;100.00;101922.44;5007298;28;20116;-77
2023/05/02 00:08:25;;;;;;;35.38;27.67;;;;;;;10.86;100.00;101923.38;5015351;28;20076;-78
2023/05/02 00:10:50;;;;;;;36.78;27.42;;;;;;;10.92;100.00;101923.84;5002457;28;20033;-77
2023/05/02 00:13:16;;;;;;;34.40;27.35;;;;;;;10.94;100.00;101926.41;5027305;28;20037;-77
2023/05/02 00:15:41;;;;;;;38.28;29.33;;;;;;;10.91;100.00;101929.22;5021064;28;20017;-77
2023/05/02 00:18:07;;;;;;;31.70;26.13;;;;;;;10.90;100.00;101930.16;5023558;28;20092;-78
2023/05/02 00:20:41;;;;;;;36.47;27.98;;;;;;;10.91;100.00;101931.84;5008060;28;20030;-77
2023/05/02 00:23:06;;;;;;;33.75;27.15;;;;;;;10.91;100.00;101932.69;4991523;28;20097;-77
2023/05/02 00:25:42;;;;;;;36.28;27.40;;;;;;;10.90;100.00;101935.41;5010423;28;20018;-77
2023/05/02 00:28:08;;;;;;;35.65;28.30;;;;;;;10.90;100.00;101940.69;5009573;28;20033;-77
2023/05/02 00:30:43;;;;;;;35.42;26.77;;;;;;;10.92;100.00;101938.81;5023286;28;20029;-77
2023/05/02 00:33:11;;;;;;;37.70;26.23;;;;;;;10.92;100.00;101938.81;5028620;28;20431;-78
2023/05/02 00:35:36;;;;;;;35.47;26.67;;;;;;;10.90;100.00;101943.31;4996836;28;20687;-77
2023/05/02 00:38:01;;;;;;;33.42;26.55;;;;;;;10.91;100.00;101943.22;5026269;28;20029;-77
2023/05/02 00:40:31;;;;;;;35.72;26.58;;;;;;;10.93;100.00;101943.13;5007162;28;20033;-77
2023/05/02 00:42:56;;;;;;;32.67;25.00;;;;;;;10.91;100.00;101945.00;5029465;28;20439;-77
2023/05/02 00:45:22;;;;;;;32.42;24.63;;;;;;;10.86;100.00;101942.66;5029690;28;20072;-77
2023/05/02 00:47:49;;;;;;;29.10;22.67;;;;;;;10.86;100.00;101942.66;5019351;28;20033;-77
2023/05/02 00:50:15;;;;;;;29.48;24.15;;;;;;;10.89;100.00;101955.63;5029034;28;20097;-77
2023/05/02 00:52:42;;;;;;;28.17;21.55;;;;;;;10.83;100.00;101949.88;5010412;28;20518;-77
2023/05/02 00:55:08;;;;;;;28.15;21.42;;;;;;;10.82;100.00;101958.72;5023659;28;20077;-77
2023/05/02 00:57:33;;;;;;;24.42;19.75;;;;;;;10.79;100.00;101950.97;5010055;28;20030;-77
2023/05/02 00:59:58;;;;;;;26.50;20.52;;;;;;;10.78;100.00;101957.16;5022638;28;20083;-77
2023/05/02 01:02:54;;;;;;;25.92;19.08;;;;;;;10.77;100.00;101948.41;5029406;28;20033;-77
2023/05/02 01:05:45;;;;;;;26.02;19.67;;;;;;;10.71;100.00;101956.66;4987793;28;20091;-77
2023/05/02 01:08:24;;;;;;;26.13;19.48;;;;;;;10.65;100.00;101959.66;5018317;28;20033;-78
2023/05/02 01:11:10;;;;;;;25.10;18.55;;;;;;;10.64;100.00;101950.91;5005446;28;20033;-77
2023/05/02 01:13:37;;;;;;;21.60;17.83;;;;;;;10.62;100.00;101960.66;5025448;28;20423;-77
2023/05/02 01:16:05;;;;;;;23.98;17.73;;;;;;;10.51;100.00;101960.44;5009745;28;20033;-77
2023/05/02 01:18:36;;;;;;;20.02;15.77;;;;;;;10.46;100.00;101957.22;4992743;28;20498;-78
2023/05/02 01:21:07;;;;;;;19.75;14.40;;;;;;;10.33;100.00;101964.91;5028695;28;20112;-77
2023/05/02 01:23:45;;;;;;;17.90;13.95;;;;;;;10.32;100.00;101959.75;5013865;28;20022;-77
2023/05/02 01:26:19;;;;;;;18.42;13.98;;;;;;;10.28;100.00;101963.47;5003848;28;20026;-77
2023/05/02 01:29:07;;;;;;;19.08;14.10;;;;;;;10.28;100.00;101958.22;5027204;28;20548;-77
2023/05/02 01:31:43;;;;;;;20.00;14.55;;;;;;;10.22;100.00;101953.28;5024622;28;20037;-77
2023/05/02 01:34:10;;;;;;;19.00;14.40;;;;;;;10.21;100.00;101957.69;5032027;28;20181;-77
2023/05/02 01:36:44;;;;;;;18.13;13.82;;;;;;;10.18;100.00;101951.72;5028627;28;20061;-77
2023/05/02 01:39:13;;;;;;;17.35;14.07;;;;;;;10.15;100.00;101954.53;5031600;28;20410;-77
2023/05/02 01:41:44;;;;;;;19.55;14.00;;;;;;;10.13;100.00;101949.34;5030058;28;20038;-77
2023/05/02 01:44:16;;;;;;;18.63;14.63;;;;;;;10.14;100.00;101953.69;5006363;28;20022;-77
2023/05/02 01:46:43;;;;;;;18.05;14.73;;;;;;;10.09;100.00;101962.75;5019941;28;20080;-77
2023/05/02 01:49:09;;;;;;;20.27;14.95;;;;;;;10.07;100.00;101964.63;5030328;28;20108;-77
2023/05/02 01:51:42;;;;;;;20.92;15.25;;;;;;;10.06;100.00;101969.03;5015111;28;20450;-77
2023/05/02 01:54:10;;;;;;;17.80;14.60;;;;;;;10.01;100.00;101971.06;5031418;28;20104;-78
2023/05/02 01:56:37;;;;;;;19.13;14.38;;;;;;;10.04;100.00;101966.50;5032806;28;20018;-78
2023/05/02 01:59:08;;;;;;;18.70;14.48;;;;;;;10.09;100.00;101978.53;5020412;28;20026;-78
2023/05/02 02:01:38;;;;;;;20.33;14.93;;;;;;;10.08;100.00;101982.09;5010811;28;20041;-79
2023/05/02 02:04:06;;;;;;;19.33;15.32;;;;;;;10.07;100.00;101980.41;5012190;28;20042;-78
2023/05/02 02:06:35;;;;;;;20.17;15.75;;;;;;;10.08;100.00;101971.56;5012669;28;20382;-77
2023/05/02 02:09:02;;;;;;;19.73;15.85;;;;;;;10.10;100.00;101977.59;5016325;28;20104;-79
2023/05/02 02:11:51;;;;;;;19.60;15.73;;;;;;;10.12;100.00;101999.41;5015000;28;20055;-78
2023/05/02 02:14:21;;;;;;;18.95;15.85;;;;;;;10.09;100.00;101989.06;5031187;28;20025;-77
2023/05/02 02:16:48;;;;;;;22.73;17.13;;;;;;;10.05;100.00;101991.84;5032658;28;20028;-77
2023/05/02 02:19:14;;;;;;;20.85;16.42;;;;;;;10.10;100.00;101998.63;5011031;28;20375;-77
2023/05/02 02:21:42;;;;;;;23.02;17.27;;;;;;;10.09;100.00;102010.94;5011913;28;20029;-78
2023/05/02 02:24:09;;;;;;;22.70;17.33;;;;;;;10.07;100.00;102011.94;5025692;28;20108;-77
2023/05/02 02:26:35;;;;;;;22.02;16.88;;;;;;;10.08;100.00;102003.97;5019759;28;20033;-79
2023/05/02 02:29:05;;;;;;;23.00;17.50;;;;;;;10.10;100.00;102002.13;5030509;28;20037;-79
2023/05/02 02:31:35;;;;;;;20.33;16.98;;;;;;;10.15;100.00;102004.50;5031096;28;20110;-77
2023/05/02 02:34:01;;;;;;;21.25;17.60;;;;;;;10.14;100.00;102014.16;5024183;28;20029;-77
2023/05/02 02:36:34;;;;;;;21.08;17.77;;;;;;;10.12;100.00;102009.91;5007754;28;20112;-77
2023/05/02 02:39:16;;;;;;;21.63;17.10;;;;;;;10.12;100.00;102009.91;5003192;28;20028;-77
2023/05/02 02:42:06;;;;;;;22.35;18.20;;;;;;;10.12;100.00;102016.03;5012137;28;20036;-78
2023/05/02 02:44:53;;;;;;;21.88;18.77;;;;;;;10.17;100.00;102018.41;5029553;28;20094;-77
2023/05/02 02:47:31;;;;;;;21.58;18.33;;;;;;;10.09;100.00;102017.97;5031049;28;20323;-78
2023/05/02 02:50:22;;;;;;;23.80;18.15;;;;;;;10.17;100.00;102018.41;5029906;28;20109;-77
2023/05/02 02:53:15;;;;;;;20.42;17.60;;;;;;;10.13;100.00;102017.72;5012183;28;20029;-78
2023/05/02 02:55:41;;;;;;;21.15;17.88;;;;;;;10.10;100.00;102017.03;5002733;28;20034;-77
2023/05/02 02:58:30;;;;;;;22.48;17.60;;;;;;;10.08;100.00;102029.44;5022852;28;20554;-78
2023/05/02 03:01:01;;;;;;;22.70;17.98;;;;;;;10.09;100.00;102033.75;5030353;28;20033;-76
2023/05/02 03:03:28;;;;;;;20.20;16.75;;;;;;;10.10;100.00;102022.31;5013117;28;20109;-76
2023/05/02 03:05:57;;;;;;;24.48;15.55;;;;;;;10.08;100.00;102034.69;5031954;28;20026;-76
2023/05/02 03:08:23;;;;;;;19.98;15.52;;;;;;;10.08;100.00;102039.94;5013351;28;20092;-76
2023/05/02 03:10:48;;;;;;;18.13;14.90;;;;;;;10.07;100.00;102031.22;5021317;28;20033;-76
2023/05/02 03:13:14;;;;;;;20.80;14.95;;;;;;;10.09;100.00;102041.66;5009823;28;20034;-76
2023/05/02 03:15:52;;;;;;;19.10;14.27;;;;;;;10.12;100.00;102049.38;4993890;28;20018;-75
2023/05/02 03:18:18;;;;;;;16.35;13.55;;;;;;;10.12;100.00;102057.25;5016014;28;20037;-76
2023/05/02 03:20:43;;;;;;;19.85;13.13;;;;;;;10.13;100.00;102053.69;5031150;28;20021;-76
2023/05/02 03:23:08;;;;;;;17.63;13.57;;;;;;;10.12;100.00;102050.22;5011137;28;20021;-76
2023/05/02 03:25:56;;;;;;;21.25;12.85;;;;;;;10.18;100.00;102057.78;5007590;28;20022;-76
2023/05/02 03:28:21;;;;;;;16.98;13.35;;;;;;;10.11;100.00;102066.09;5020570;28;20070;-76
2023/05/02 03:30:47;;;;;;;19.10;13.38;;;;;;;10.09;100.00;102057.41;4992259;28;20029;-75
2023/05/02 03:33:13;;;;;;;16.75;13.32;;;;;;;10.09;100.00;102062.69;5025334;28;20030;-75
2023/05/02 03:35:54;;;;;;;21.40;13.82;;;;;;;10.11;100.00;102063.44;5009539;28;20022;-76
2023/05/02 03:38:20;;;;;;;17.75;13.25;;;;;;;10.11;100.00;102055.56;5007579;28;20037;-76
2023/05/02 03:40:55;;;;;;;16.80;13.18;;;;;;;10.09;100.00;102062.69;4990836;28;20506;-76
2023/05/02 03:43:21;;;;;;;18.42;13.55;;;;;;;10.10;100.00;102059.13;4991484;28;20060;-76
2023/05/02 03:45:50;;;;;;;21.77;13.65;;;;;;;10.10;100.00;102069.63;4998199;28;20022;-76
2023/05/02 03:48:15;;;;;;;20.30;13.52;;;;;;;10.09;100.00;102068.78;5010358;28;20029;-76
2023/05/02 03:50:43;;;;;;;20.98;13.85;;;;;;;10.12;100.00;102073.03;5015753;28;20152;-76
2023/05/02 03:53:11;;;;;;;18.15;13.57;;;;;;;10.08;100.00;102077.59;5027663;28;20047;-76
2023/05/02 03:55:51;;;;;;;21.55;14.00;;;;;;;10.09;100.00;102084.56;5011508;28;20040;-76
2023/05/02 03:58:16;;;;;;;22.50;13.70;;;;;;;10.09;100.00;102086.34;5028035;28;20033;-76
2023/05/02 04:00:55;;;;;;;20.00;12.10;;;;;;;10.10;100.00;102086.28;5029964;28;20496;-76
2023/05/02 04:03:22;;;;;;;17.58;9.80;;;;;;;10.03;100.00;102100.66;5008912;28;20467;-76
2023/05/02 04:05:50;;;;;;;19.40;8.85;;;;;;;10.00;100.00;102098.16;5011302;28;20045;-76
2023/05/02 04:08:17;;;;;;;14.25;8.00;;;;;;;9.99;100.00;102091.22;5009561;28;20430;-76
2023/05/02 04:10:43;;;;;;;13.52;7.35;;;;;;;9.98;100.00;102107.91;5013067;28;20033;-76
2023/05/02 04:13:12;;;;;;;15.02;7.10;;;;;;;9.91;100.00;102102.13;5028873;28;20041;-76
2023/05/02 04:15:38;;;;;;;13.70;6.65;;;;;;;9.90;100.00;102095.16;5024793;28;20025;-76
2023/05/02 04:18:03;;;;;;;10.95;6.28;;;;;;;9.89;100.00;102108.38;5023459;28;20022;-77
2023/05/02 04:20:29;;;;;;;15.40;6.38;;;;;;;9.85;100.00;102112.09;4987225;28;20037;-76
2023/05/02 04:22:54;;;;;;;13.32;6.22;;;;;;;9.84;100.00;102108.63;4990384;28;20081;-76
2023/05/02 04:25:20;;;;;;;13.45;6.35;;;;;;;9.86;100.00;102109.41;4995877;28;20030;-76
2023/05/02 04:28:07;;;;;;;16.50;6.90;;;;;;;9.87;100.00;102121.63;4995468;28;20025;-76
2023/05/02 04:30:33;;;;;;;11.48;6.82;;;;;;;9.83;100.00;102125.31;5008186;28;20049;-76
2023/05/02 04:32:58;;;;;;;12.68;6.88;;;;;;;9.81;100.00;102121.06;4991291;28;20509;-76
2023/05/02 04:35:27;;;;;;;13.30;7.18;;;;;;;9.78;100.00;102140.47;4972175;28;20575;-76
2023/05/02 04:37:53;;;;;;;12.18;6.28;;;;;;;9.76;100.00;102144.97;5001383;28;20116;-77
2023/05/02 04:40:19;;;;;;;12.18;6.30;;;;;;;9.73;100.00;102150.38;4991643;28;20109;-76
2023/05/02 04:42:45;;;;;;;11.25;5.43;;;;;;;9.70;100.00;102150.53;5001044;28;20026;-76
2023/05/02 04:45:11;;;;;;;10.95;4.80;;;;;;;9.65;100.00;102149.91;5020288;28;20036;-76
2023/05/02 04:47:37;;;;;;;9.48;3.08;;;;;;;9.68;97.51;102155.00;5010120;28;20109;-75
2023/05/02 04:50:06;;;;;;;9.85;3.05;;;;;;;9.59;95.57;102158.06;5008934;28;20439;-76
2023/05/02 04:52:31;;;;;;;8.73;2.55;;;;;;;9.66;94.71;102167.38;5009848;28;20030;-76
2023/05/02 04:54:57;;;;;;;8.07;2.50;;;;;;;9.63;92.65;102176.25;5008371;28;20072;-76
2023/05/02 04:57:22;;;;;;;8.38;2.55;;;;;;;9.64;91.17;102177.13;5020391;28;20033;-76
2023/05/02 04:59:48;;;;;;;6.20;2.33;;;;;;;9.64;90.91;102177.13;5029916;28;20109;-76
2023/05/02 05:02:14;;;;;;;8.43;2.38;;;;;;;9.70;91.50;102179.44;5017644;28;20116;-76
2023/05/02 05:04:40;;;;;;;10.57;2.50;;;;;;;9.69;89.52;102185.63;5021399;28;20053;-77
2023/05/02 05:07:05;;;;;;;14.13;2.80;;;;;;;9.71;90.00;102186.41;5009086;28;20394;-77
2023/05/02 05:09:41;;;;;;;6.45;2.30;;;;;;;9.68;89.27;102199.69;5018544;28;20033;-77
2023/05/02 05:12:06;;;;;;;6.50;2.30;;;;;;;9.68;89.27;102202.31;5010429;28;20029;-76
2023/05/02 05:14:58;;;;;;;10.60;3.10;;;;;;;9.68;89.70;102203.16;5024563;28;20029;-76
2023/05/02 05:17:23;;;;;;;8.52;2.58;;;;;;;9.71;89.99;102204.78;5031507;28;20456;-76
2023/05/02 05:19:55;;;;;;;8.30;2.50;;;;;;;9.74;90.25;102212.53;5031085;28;20101;-76
2023/05/02 05:22:21;;;;;;;8.23;2.50;;;;;;;9.78;88.88;102211.44;5032073;28;20029;-76
2023/05/02 05:24:53;;;;;;;8.07;2.60;;;;;;;9.79;89.54;102221.03;5032055;28;20490;-76
2023/05/02 05:27:18;;;;;;;7.78;2.67;;;;;;;9.85;89.26;102218.09;4993261;28;20033;-75
2023/05/02 05:29:44;;;;;;;8.07;2.67;;;;;;;9.80;88.61;102219.25;5006639;28;20467;-75
2023/05/02 05:32:09;;;;;;;9.15;2.55;;;;;;;9.86;88.59;102225.06;4975068;28;20034;-77
2023/05/02 05:34:35;;;;;;;7.13;2.72;;;;;;;9.88;89.89;102228.47;5005383;28;20084;-76
2023/05/02 05:37:10;;;;;;;8.38;3.17;;;;;;;9.93;89.41;102226.47;4989859;28;20044;-76
2023/05/02 05:39:56;;;;;;;7.88;3.08;;;;;;;10.16;90.41;102235.00;5013848;28;20079;-76
2023/05/02 05:42:22;;;;;;;9.15;3.25;;;;;;;10.15;89.26;102235.94;5019488;28;20057;-74
2023/05/02 05:45:05;;;;;;;9.13;3.28;;;;;;;10.20;89.79;102236.56;5011546;28;20145;-75
2023/05/02 05:47:31;;;;;;;;;;;;;;;10.39;89.95;102239.97;5000147;28;20025;-75
2023/05/02 05:49:57;;;;;;;6.97;3.22;;;;;;;10.44;88.79;102243.25;5033086;28;19909;-75
2023/05/02 05:52:22;;;;;;;9.15;3.40;;;;;;;10.42;87.13;102239.84;5013330;28;20113;-75
2023/05/02 05:54:48;;;;;;;7.93;2.75;;;;;;;10.45;85.57;102242.31;5007951;28;20442;-76
2023/05/02 05:57:13;;;;;;;7.55;2.70;;;;;;;10.36;84.15;102245.41;5026280;28;20473;-76
2023/05/02 05:59:39;;;;;;;6.65;2.65;;;;;;;10.39;83.76;102250.50;4992671;28;20026;-76
2023/05/02 06:02:04;;;;;;;9.68;2.65;;;;;;;10.40;83.11;102251.34;5009035;28;20022;-76
2023/05/02 06:04:30;;;;;;;7.47;2.33;;;;;;;10.40;82.85;102261.88;5016863;28;20602;-76
2023/05/02 06:06:55;;;;;;;9.27;2.35;;;;;;;10.46;82.33;102264.22;5030308;28;20029;-76
2023/05/02 06:09:21;;;;;;;8.77;2.58;;;;;;;10.56;82.01;102258.41;5011571;28;20363;-76
2023/05/02 06:11:46;;;;;;;11.57;2.63;;;;;;;10.51;80.86;102270.09;4995985;28;20026;-75
2023/05/02 06:14:11;;;;;;;7.60;2.20;;;;;;;10.50;79.86;102273.66;5014684;28;20029;-77
2023/05/02 06:16:37;;;;;;;6.00;2.00;;;;;;;10.52;80.15;102277.06;5013672;28;20026;-76
2023/05/02 06:19:05;;;;;;;10.15;2.20;;;;;;;10.64;80.29;102281.69;5011098;28;20049;-76
2023/05/02 06:21:30;;;;;;;9.60;2.70;;;;;;;10.63;78.75;102291.38;5011780;28;20479;-76
2023/05/02 06:23:55;;;;;;;5.10;2.10;;;;;;;10.72;79.95;102278.66;5012706;28;20025;-76
2023/05/02 06:26:21;;;;;;;6.20;2.30;;;;;;;10.64;78.03;102286.97;5011709;28;20033;-76
2023/05/02 06:28:46;;;;;;;8.73;2.47;;;;;;;10.71;79.14;102290.13;5009924;28;20358;-75
2023/05/02 06:31:15;;;;;;;7.45;2.33;;;;;;;10.75;77.50;102291.66;5009132;28;20036;-76
2023/05/02 06:33:41;;;;;;;7.13;2.13;;;;;;;10.87;77.64;102299.81;5004892;28;20036;-76
2023/05/02 06:36:07;;;;;;;8.13;2.30;;;;;;;10.89;76.37;102303.19;5018235;28;20022;-76
2023/05/02 06:38:33;;;;;;;7.57;2.40;;;;;;;10.89;76.51;102300.56;5010654;28;20112;-76
2023/05/02 06:40:58;;;;;;;6.97;2.20;;;;;;;11.01;76.88;102316.66;4993327;28;20539;-75
2023/05/02 06:43:25;;;;;;;6.70;2.08;;;;;;;11.08;75.91;102318.88;5008676;28;20486;-75
2023/05/02 06:45:57;;;;;;;7.20;2.40;;;;;;;11.01;75.12;102328.03;4994596;28;20026;-76
2023/05/02 06:48:23;;;;;;;8.50;2.40;;;;;;;11.29;75.38;102327.44;4993615;28;20029;-74
2023/05/02 06:50:50;;;;;;;10.65;2.58;;;;;;;11.38;74.99;102332.22;5010023;28;20026;-75
2023/05/02 06:53:16;;;;;;;8.77;2.40;;;;;;;11.28;74.25;102337.13;4993871;28;20072;-76
2023/05/02 06:55:43;;;;;;;9.20;2.60;;;;;;;11.34;75.27;102340.38;5009889;28;20292;-76
2023/05/02 06:58:12;;;;;;;8.35;2.35;;;;;;;11.42;75.66;102344.31;4991161;28;20030;-76
2023/05/02 07:00:37;;;;;;;9.93;2.60;;;;;;;11.21;74.75;102337.56;5012523;28;20106;-76
2023/05/02 07:03:02;;;;;;;10.20;2.50;;;;;;;11.33;76.59;102344.81;5009747;28;20116;-76
2023/05/02 07:05:44;;;;;;;14.80;3.50;;;;;;;11.37;75.63;102350.75;5014695;28;20085;-76
2023/05/02 07:08:10;;;;;;;10.02;2.80;;;;;;;11.23;73.65;102354.97;5022333;28;20075;-76
2023/05/02 07:10:42;;;;;;;12.90;3.15;;;;;;;11.10;74.84;102347.78;5012394;28;20040;-76
2023/05/02 07:13:07;;;;;;;10.83;2.83;;;;;;;11.16;74.79;102348.31;5001208;28;20026;-75
2023/05/02 07:15:33;;;;;;;11.52;2.83;;;;;;;11.10;74.84;102353.91;5009732;28;20017;-75
2023/05/02 07:17:58;;;;;;;9.98;3.00;;;;;;;11.14;75.15;102360.72;4987974;28;20030;-75
2023/05/02 07:20:23;;;;;;;13.38;2.88;;;;;;;11.12;74.87;102367.84;5019595;28;20393;-76
2023/05/02 07:22:50;;;;;;;10.35;3.25;;;;;;;11.19;75.20;102376.28;5009817;28;20022;-76
2023/05/02 07:25:15;;;;;;;10.30;3.10;;;;;;;11.29;76.27;102375.72;5010264;28;20499;-75
2023/05/02 07:27:40;;;;;;;12.38;3.10;;;;;;;11.19;73.47;102379.75;5011256;28;20105;-75
2023/05/02 07:30:06;;;;;;;12.40;3.30;;;;;;;11.13;73.66;102380.06;5010814;28;20364;-75
2023/05/02 07:32:32;;;;;;;8.35;2.63;;;;;;;11.09;74.14;102381.16;4993414;28;20056;-75
2023/05/02 07:34:58;;;;;;;11.65;3.45;;;;;;;11.14;74.15;102387.06;5003928;28;20014;-77
2023/05/02 07:37:23;;;;;;;16.27;3.58;;;;;;;10.99;73.71;102393.13;4990433;28;20033;-75
2023/05/02 07:39:49;;;;;;;14.38;3.25;;;;;;;11.17;74.25;102391.31;5020332;28;20026;-75
2023/05/02 07:42:14;;;;;;;12.45;3.20;;;;;;;11.51;73.67;102388.63;5008536;28;20036;-77
2023/05/02 07:44:40;;;;;;;12.50;3.45;;;;;;;11.82;72.41;102393.13;5010472;28;20482;-75
2023/05/02 07:47:06;;;;;;;13.95;3.40;;;;;;;12.00;70.04;102398.31;4992425;28;20029;-75
2023/05/02 07:49:32;;;;;;;10.10;3.45;;;;;;;12.13;70.50;102396.72;5010020;28;20037;-75
2023/05/02 07:51:57;;;;;;;11.07;3.28;;;;;;;12.14;70.09;102391.38;5009793;28;20018;-75
2023/05/02 07:54:25;;;;;;;13.70;3.33;;;;;;;11.92;69.12;102402.22;5014954;28;20056;-75
2023/05/02 07:56:50;;;;;;;11.63;3.50;;;;;;;11.79;69.87;102395.94;4995454;28;20509;-75
2023/05/02 07:59:15;;;;;;;15.15;4.03;;;;;;;11.54;70.51;102406.03;5002281;28;20026;-75
2023/05/02 08:01:41;;;;;;;10.32;3.22;;;;;;;11.49;71.09;102413.34;5011966;28;20029;-75
2023/05/02 08:04:09;;;;;;;9.82;2.70;;;;;;;11.36;70.89;102413.16;5012042;28;20160;-75
2023/05/02 08:06:35;;;;;;;18.40;3.60;;;;;;;11.18;71.60;102401.75;5022494;28;20045;-75
2023/05/02 08:09:00;;;;;;;10.15;3.65;;;;;;;11.00;72.62;102413.25;5005266;28;20486;-75
2023/05/02 08:11:26;;;;;;;11.88;3.40;;;;;;;10.80;72.73;102419.50;5009881;28;20040;-75
2023/05/02 08:13:51;;;;;;;10.90;3.63;;;;;;;10.71;72.16;102424.38;5023417;28;20074;-75
2023/05/02 08:16:17;;;;;;;14.75;3.60;;;;;;;10.51;72.50;102428.00;4997959;28;20025;-75
2023/05/02 08:18:46;;;;;;;11.05;3.25;;;;;;;10.32;69.79;102433.28;5014408;28;20117;-75
2023/05/02 08:21:12;;;;;;;11.18;2.78;;;;;;;10.19;70.61;102434.75;5018459;28;20134;-75
2023/05/02 08:23:44;;;;;;;9.82;3.10;;;;;;;10.13;71.79;102442.94;5011057;28;20109;-75
2023/05/02 08:26:09;;;;;;;7.15;2.80;;;;;;;10.10;71.47;102445.72;5009771;28;20379;-75
2023/05/02 08:28:35;;;;;;;10.65;2.88;;;;;;;10.21;71.49;102446.94;4993327;28;20038;-75
2023/05/02 08:31:01;;;;;;;12.32;3.08;;;;;;;10.21;70.54;102446.09;5013829;28;20124;-75
2023/05/02 08:33:30;;;;;;;14.20;3.30;;;;;;;10.33;70.63;102456.03;5013989;28;20585;-77
2023/05/02 08:36:01;;;;;;;7.85;2.90;;;;;;;10.41;69.84;102458.31;4992297;28;20049;-75
2023/05/02 08:38:32;;;;;;;10.20;2.92;;;;;;;10.46;70.51;102462.44;5020086;28;20542;-75
2023/05/02 08:41:09;;;;;;;12.52;3.25;;;;;;;10.58;70.74;102461.84;4995533;28;20045;-75
2023/05/02 08:43:35;;;;;;;10.68;2.85;;;;;;;10.70;69.03;102464.78;4976055;28;20026;-77
2023/05/02 08:46:08;;;;;;;12.32;3.22;;;;;;;10.76;69.32;102465.34;5008183;28;20018;-77
2023/05/02 08:48:38;;;;;;;11.55;3.17;;;;;;;10.87;67.88;102464.84;5012600;28;20434;-75
2023/05/02 08:51:07;;;;;;;14.15;3.50;;;;;;;11.03;67.70;102460.50;5006626;28;20034;-75
2023/05/02 08:53:37;;;;;;;11.57;3.20;;;;;;;11.22;67.06;102468.34;5012214;28;20160;-75
2023/05/02 08:56:07;;;;;;;11.82;3.53;;;;;;;11.16;66.64;102468.63;4993561;28;20489;-74
2023/05/02 08:58:32;;;;;;;9.80;2.70;;;;;;;11.23;66.56;102470.06;5011432;28;20057;-74
2023/05/02 09:01:08;;;;;;;10.95;3.25;;;;;;;11.38;65.70;102478.97;5011783;28;20053;-75
2023/05/02 09:03:35;;;;;;;10.90;2.63;;;;;;;11.53;64.61;102472.88;5013231;28;20025;-76
2023/05/02 09:06:11;;;;;;;9.82;3.08;;;;;;;11.87;65.02;102485.19;5012968;28;20415;-76
2023/05/02 09:08:44;;;;;;;11.88;3.28;;;;;;;12.20;64.10;102477.25;5010391;28;20026;-75
2023/05/02 09:11:11;;;;;;;13.57;3.25;;;;;;;12.47;60.79;102477.53;4995183;28;20117;-74
2023/05/02 09:13:41;;;;;;;10.45;3.65;;;;;;;12.58;59.95;102487.47;5013459;28;20045;-75
2023/05/02 09:16:21;;;;;;;9.73;3.13;;;;;;;13.01;58.52;102484.09;5012712;28;20383;-75
2023/05/02 09:18:51;;;;;;;7.55;2.60;;;;;;;13.68;57.89;102474.00;5012961;28;20478;-74
2023/05/02 09:21:20;;;;;;;8.95;2.72;;;;;;;13.99;53.28;102481.72;5012487;28;20057;-74
2023/05/02 09:23:48;;;;;;;10.13;2.97;;;;;;;13.85;52.90;102484.38;5012013;28;20513;-76
2023/05/02 09:26:21;;;;;;;12.75;2.83;;;;;;;13.59;54.99;102483.31;5008202;28;20034;-76
2023/05/02 09:29:01;;;;;;;9.48;2.72;;;;;;;13.40;55.93;102485.38;5012323;28;20475;-76
2023/05/02 09:31:38;;;;;;;7.85;2.53;;;;;;;13.42;55.51;102484.34;4993935;28;20037;-76
2023/05/02 09:34:25;;;;;;;8.68;2.35;;;;;;;13.25;57.58;102494.22;5011923;28;20452;-76
2023/05/02 09:36:52;;;;;;;8.10;2.33;;;;;;;13.16;56.65;102498.19;5010946;28;20080;-76
2023/05/02 09:39:28;;;;;;;7.30;2.83;;;;;;;12.88;56.40;102503.38;5010889;28;20382;-76
2023/05/02 09:41:54;;;;;;;7.63;2.50;;;;;;;12.49;55.48;102508.19;5005679;28;20044;-76
2023/05/02 09:44:23;;;;;;;5.60;2.20;;;;;;;12.35;57.19;102510.72;5012286;28;20025;-75
2023/05/02 09:46:54;;;;;;;9.45;2.40;;;;;;;12.51;58.29;102508.94;5012433;28;20497;-74
2023/05/02 09:49:44;;;;;;;9.88;2.70;;;;;;;12.83;58.10;102520.34;5012767;28;20030;-76
2023/05/02 09:52:14;;;;;;;7.20;2.40;;;;;;;13.70;54.50;102509.97;5012119;28;20061;-76
2023/05/02 09:54:39;;;;;;;6.60;2.03;;;;;;;14.86;50.12;102512.44;5013244;28;20041;-74
2023/05/02 09:57:06;;;;;;;6.38;2.08;;;;;;;15.93;48.25;102506.88;5012458;28;20030;-75
2023/05/02 09:59:35;;;;;;;8.40;2.63;;;;;;;15.58;48.01;102500.50;5003770;28;20038;-75
2023/05/02 10:02:08;;;;;;;7.53;2.70;;;;;;;14.84;50.45;102511.69;5027744;28;20096;-74
2023/05/02 10:04:35;;;;;;;9.73;2.60;;;;;;;14.24;50.25;102520.75;4991401;28;20079;-74
2023/05/02 10:07:05;;;;;;;9.20;2.45;;;;;;;14.33;51.67;102501.63;4992410;28;20117;-74
2023/05/02 10:09:34;;;;;;;11.85;2.90;;;;;;;15.61;49.17;102506.47;4993216;28;20395;-75
2023/05/02 10:12:06;;;;;;;6.50;2.50;;;;;;;16.41;47.38;102508.81;4993310;28;20026;-74
2023/05/02 10:14:39;;;;;;;9.90;2.72;;;;;;;17.30;44.88;102506.66;4992796;28;20061;-74
2023/05/02 10:17:15;;;;;;;10.18;2.58;;;;;;;17.79;44.10;102508.22;4987543;28;20053;-74
2023/05/02 10:19:59;;;;;;;7.30;2.28;;;;;;;17.28;44.91;102507.72;4992699;28;20061;-74
2023/05/02 10:22:25;;;;;;;9.90;2.60;;;;;;;16.67;45.24;102522.91;4991279;28;20538;-74
2023/05/02 10:24:52;;;;;;;7.97;2.40;;;;;;;15.96;46.95;102511.13;4991209;28;20109;-75
2023/05/02 10:27:18;;;;;;;7.60;2.65;;;;;;;15.79;48.05;102514.97;4991269;28;20104;-75
2023/05/02 10:29:45;;;;;;;8.50;2.78;;;;;;;15.30;48.26;102522.75;4992550;28;20032;-75
2023/05/02 10:32:11;;;;;;;7.78;2.70;;;;;;;14.79;48.37;102521.72;4990652;28;20051;-74
2023/05/02 10:34:39;;;;;;;8.32;2.88;;;;;;;14.47;50.40;102531.75;4986728;28;20027;-75
2023/05/02 10:37:04;;;;;;;13.30;3.30;;;;;;;13.97;51.94;102533.03;4989883;28;20113;-74
2023/05/02 10:39:31;;;;;;;9.02;3.03;;;;;;;13.62;53.39;102533.41;4991571;28;20037;-74
2023/05/02 10:41:59;;;;;;;11.32;3.20;;;;;;;13.31;53.50;102536.16;4990015;28;20023;-74
2023/05/02 10:44:40;;;;;;;9.88;3.90;;;;;;;13.30;54.73;102532.66;4989883;28;20081;-74
2023/05/02 10:47:25;;;;;;;13.27;4.05;;;;;;;13.58;54.20;102526.56;4990110;28;20034;-76
2023/05/02 10:49:53;;;;;;;11.55;3.60;;;;;;;13.73;53.17;102525.66;4991673;28;20033;-74
2023/05/02 10:52:28;;;;;;;7.10;2.85;;;;;;;13.84;52.49;102530.31;4986025;28;20398;-74
2023/05/02 10:55:22;;;;;;;9.75;3.00;;;;;;;14.35;53.04;102536.81;4990745;28;20029;-74
2023/05/02 10:58:00;;;;;;;6.97;2.90;;;;;;;14.74;51.01;102535.25;4992301;28;20446;-75
2023/05/02 11:00:28;;;;;;;10.35;2.90;;;;;;;14.78;49.58;102542.06;4992118;28;20036;-74
2023/05/02 11:02:54;;;;;;;9.25;2.97;;;;;;;14.34;49.10;102543.06;4991348;28;20395;-74
2023/05/02 11:05:21;;;;;;;10.40;3.10;;;;;;;14.45;50.10;102538.94;4989873;28;20046;-74
2023/05/02 11:08:09;;;;;;;7.45;2.92;;;;;;;14.71;49.16;102538.09;4986524;28;20019;-75
2023/05/02 11:10:34;;;;;;;9.18;2.63;;;;;;;15.07;46.68;102534.88;4991773;28;20026;-75
2023/05/02 11:13:00;;;;;;;7.22;2.47;;;;;;;15.34;45.05;102540.16;4992213;28;20018;-75
2023/05/02 11:15:26;;;;;;;9.25;2.75;;;;;;;15.71;45.80;102537.69;4991742;28;20094;-77
2023/05/02 11:18:07;;;;;;;7.18;2.40;;;;;;;15.94;44.93;102534.28;4991662;28;20491;-75
2023/05/02 11:20:42;;;;;;;5.78;2.22;;;;;;;15.89;44.23;102531.94;5022988;28;20038;-75
2023/05/02 11:23:26;;;;;;;7.60;2.60;;;;;;;15.84;44.47;102538.53;4989063;28;20030;-75
2023/05/02 11:25:56;;;;;;;7.25;2.58;;;;;;;15.31;45.86;102545.66;4974212;28;20066;-75